Auburndale, Massachusetts
Current Conditions -  °F | °C
As of 9:33 AM on Tuesday 27 Jan 2015 (Local Time) from KBOS Reporting Station
Moderate Snow Moderate Snow  
Wind Chill: -18°   Ceiling: 500
Heat Index: -9°   Visibility: 0.25mi
Dew Point: -11°   Wind: 20mph
Humidity: 86%   Direction: 360°N
Pressure: 29.55"   Gusts: 29mph
Location:  42.35°N, 70.95°W
Report Text: KBOS 271433Z 36017G25KT 1/4SM R04R/3000V4000FT SN BLSN FZFG VV005 M09/M11 A2955 RMK AO2 PK WND 01030/1423 P0004
Loading
Personal Weather Stations






























Interactive Weather Map New forecast layout! Learn more

10-Day Weather Forecast

Advertisements
Track Severe Weather on mobile